createdAt,value
2018-01-25T00:01:19.379Z,15.36
2018-01-25T00:06:20.899Z,15.33
2018-01-25T00:11:22.207Z,15.35
2018-01-25T00:16:23.621Z,15.28
2018-01-25T00:21:25.678Z,15.21
2018-01-25T00:26:27.014Z,15.27
2018-01-25T00:31:29.078Z,15.22
2018-01-25T00:36:30.399Z,15.33
2018-01-25T00:41:32.486Z,15.14
2018-01-25T00:46:33.894Z,15.19
2018-01-25T00:51:35.220Z,15.05
2018-01-25T00:56:36.518Z,15.15
2018-01-25T01:01:37.893Z,15.06
2018-01-25T01:06:39.235Z,14.63
2018-01-25T01:11:40.541Z,13.69
2018-01-25T01:16:42.690Z,12.75
2018-01-25T01:21:43.990Z,12.39
2018-01-25T01:26:45.340Z,12.25
2018-01-25T01:31:46.688Z,12.31
2018-01-25T01:36:48.018Z,12.13
2018-01-25T01:41:49.402Z,12.22
2018-01-25T01:46:51.507Z,12.16
2018-01-25T01:51:52.833Z,12.09
2018-01-25T01:56:54.171Z,12.02
2018-01-25T02:01:55.503Z,11.93
2018-01-25T02:06:56.842Z,11.89
2018-01-25T02:11:58.175Z,12.00
2018-01-25T02:16:59.516Z,11.93
2018-01-25T02:22:00.855Z,11.90
2018-01-25T02:27:02.170Z,11.95
2018-01-25T02:32:03.532Z,11.94
2018-01-25T02:37:04.842Z,11.95
2018-01-25T02:42:06.201Z,11.98
2018-01-25T02:47:07.550Z,12.05
2018-01-25T02:52:08.923Z,12.01
2018-01-25T02:57:10.250Z,11.91
2018-01-25T03:02:11.570Z,11.85
2018-01-25T03:07:12.906Z,11.96
2018-01-25T03:12:14.221Z,11.91
2018-01-25T03:17:15.633Z,11.78
2018-01-25T03:22:17.691Z,11.73
2018-01-25T03:27:19.021Z,11.70
2018-01-25T03:32:21.087Z,11.70
2018-01-25T03:37:22.411Z,11.56
2018-01-25T03:42:23.767Z,11.47
2018-01-25T03:47:25.104Z,11.35
2018-01-25T03:52:27.157Z,11.29
2018-01-25T03:57:28.482Z,11.26
2018-01-25T04:02:29.818Z,11.32
2018-01-25T04:07:31.120Z,11.33
2018-01-25T04:12:32.454Z,11.45
2018-01-25T04:17:33.794Z,11.39
2018-01-25T04:22:35.108Z,11.30
2018-01-25T04:27:36.423Z,11.25
2018-01-25T04:32:38.495Z,11.19
2018-01-25T04:37:39.855Z,11.20
2018-01-25T04:42:41.204Z,11.15
2018-01-25T04:47:43.303Z,11.22
2018-01-25T04:52:44.596Z,11.23
2018-01-25T04:57:45.930Z,11.18
2018-01-25T05:02:47.288Z,11.02
2018-01-25T05:07:49.488Z,11.07
2018-01-25T05:12:51.041Z,10.95
2018-01-25T05:17:56.418Z,11.00
2018-01-25T05:22:57.822Z,10.96
2018-01-25T05:27:59.176Z,10.94
2018-01-25T05:33:00.503Z,10.98
2018-01-25T05:38:01.851Z,11.11
2018-01-25T05:43:03.176Z,10.99
2018-01-25T05:48:04.496Z,11.02
2018-01-25T05:53:06.551Z,11.04
2018-01-25T05:58:07.963Z,11.09
2018-01-25T06:03:09.300Z,11.17
2018-01-25T06:08:11.462Z,11.14
2018-01-25T06:13:12.839Z,11.27
2018-01-25T06:18:15.337Z,11.28
2018-01-25T06:23:16.715Z,11.28
2018-01-25T06:28:18.796Z,11.19
2018-01-25T06:33:20.113Z,11.21
2018-01-25T06:38:22.182Z,11.15
2018-01-25T06:43:23.515Z,11.17
2018-01-25T06:48:25.550Z,11.15
2018-01-25T06:53:26.872Z,11.04
2018-01-25T06:58:28.210Z,11.13
2018-01-25T07:03:29.531Z,11.17
2018-01-25T07:08:30.862Z,11.11
2018-01-25T07:13:32.911Z,11.17
2018-01-25T07:18:34.251Z,11.30
2018-01-25T07:23:35.615Z,11.34
2018-01-25T07:28:36.907Z,11.21
2018-01-25T07:33:38.246Z,11.32
2018-01-25T07:38:39.568Z,11.35
2018-01-25T07:43:40.903Z,11.31
2018-01-25T07:48:42.972Z,11.17
2018-01-25T07:53:44.288Z,11.17
2018-01-25T07:58:45.596Z,11.19
2018-01-25T08:03:47.627Z,11.22
2018-01-25T08:08:48.963Z,11.27
2018-01-25T08:13:50.266Z,11.26
2018-01-25T08:18:51.580Z,11.37
2018-01-25T08:23:52.922Z,11.34
2018-01-25T08:28:54.222Z,11.32
2018-01-25T08:33:55.519Z,11.46
2018-01-25T08:38:57.007Z,11.42
2018-01-25T08:43:58.302Z,11.44
2018-01-25T08:48:59.613Z,11.49
2018-01-25T08:54:00.945Z,11.73
2018-01-25T08:59:02.238Z,11.69
2018-01-25T09:04:03.598Z,11.70
2018-01-25T09:09:04.955Z,11.79
2018-01-25T09:14:06.315Z,11.82
2018-01-25T09:19:07.656Z,11.90
2018-01-25T09:24:08.968Z,12.13
2018-01-25T09:29:10.306Z,12.40
2018-01-25T09:34:11.619Z,12.27
2018-01-25T09:39:12.982Z,12.41
2018-01-25T09:44:14.289Z,12.53
2018-01-25T09:49:16.331Z,12.67
2018-01-25T09:54:17.739Z,12.78
2018-01-25T09:59:19.014Z,12.90
2018-01-25T10:04:20.324Z,12.93
2018-01-25T10:09:21.733Z,12.91
2018-01-25T10:14:23.301Z,12.80
2018-01-25T10:19:24.391Z,12.76
2018-01-25T10:24:25.718Z,12.54
2018-01-25T10:29:27.773Z,12.64
2018-01-25T10:34:29.098Z,12.46
2018-01-25T10:39:30.422Z,12.64
2018-01-25T10:44:31.748Z,12.62
2018-01-25T10:49:33.030Z,12.63
2018-01-25T10:54:34.570Z,12.75
2018-01-25T10:59:36.612Z,12.82
2018-01-25T11:04:37.930Z,12.62
2018-01-25T11:09:39.275Z,12.65
2018-01-25T11:14:40.598Z,12.88
2018-01-25T11:19:42.927Z,12.89
2018-01-25T11:24:44.235Z,12.91
2018-01-25T11:29:45.546Z,12.95
2018-01-25T11:34:47.579Z,13.04
2018-01-25T11:39:48.895Z,13.03
2018-01-25T11:44:50.251Z,13.04
2018-01-25T11:49:51.648Z,13.00
2018-01-25T11:54:52.992Z,12.88
2018-01-25T11:59:54.326Z,12.90
2018-01-25T12:04:55.663Z,12.74
2018-01-25T12:09:56.986Z,12.73
2018-01-25T12:14:58.321Z,12.74
2018-01-25T12:19:59.630Z,12.67
2018-01-25T12:25:00.971Z,12.67
2018-01-25T12:30:02.310Z,12.69
2018-01-25T12:35:03.667Z,13.00
2018-01-25T12:40:05.023Z,12.97
2018-01-25T12:45:07.095Z,13.01
2018-01-25T12:50:08.423Z,13.17
2018-01-25T12:55:09.800Z,13.38
2018-01-25T13:00:11.859Z,13.70
2018-01-25T13:05:13.216Z,13.73
2018-01-25T13:10:14.564Z,13.79
2018-01-25T13:15:16.052Z,13.62
2018-01-25T13:20:17.578Z,13.51
2018-01-25T13:25:19.724Z,13.64
2018-01-25T13:30:21.641Z,13.70
2018-01-25T13:35:23.020Z,13.59
2018-01-25T13:40:24.459Z,13.53
2018-01-25T13:45:26.522Z,13.33
2018-01-25T13:50:27.823Z,13.41
2018-01-25T13:55:29.189Z,13.36
2018-01-25T14:00:30.538Z,13.41
2018-01-25T14:05:32.626Z,13.43
2018-01-25T14:10:33.938Z,13.33
2018-01-25T14:15:36.022Z,13.42
2018-01-25T14:20:37.342Z,13.34
2018-01-25T14:25:39.403Z,13.36
2018-01-25T14:30:40.749Z,13.23
2018-01-25T14:35:42.067Z,13.08
2018-01-25T14:40:43.395Z,13.10
2018-01-25T14:45:44.874Z,13.06
2018-01-25T14:50:46.196Z,12.97
2018-01-25T14:55:48.330Z,12.96
2018-01-25T15:00:49.645Z,12.79
2018-01-25T15:05:50.985Z,12.82
2018-01-25T15:10:53.131Z,12.68
2018-01-25T15:15:54.490Z,12.64
2018-01-25T15:20:55.934Z,12.64
2018-01-25T15:25:59.427Z,12.66
2018-01-25T15:31:00.576Z,12.72
2018-01-25T15:36:09.026Z,12.69
2018-01-25T15:41:10.342Z,12.64
2018-01-25T15:46:12.378Z,12.65
2018-01-25T15:51:13.711Z,12.63
2018-01-25T15:56:15.090Z,12.60
2018-01-25T16:01:16.414Z,12.48
2018-01-25T16:06:18.441Z,12.40
2018-01-25T16:11:19.761Z,12.33
2018-01-25T16:16:21.079Z,12.38
2018-01-25T16:21:23.211Z,12.37
2018-01-25T16:26:25.287Z,12.40
2018-01-25T16:31:26.684Z,12.33
2018-01-25T16:36:28.763Z,12.34
2018-01-25T16:41:30.475Z,12.33
2018-01-25T16:46:31.845Z,12.35
2018-01-25T16:51:33.166Z,12.24
2018-01-25T16:56:34.504Z,12.21
2018-01-25T17:01:35.921Z,11.98
2018-01-25T17:06:37.267Z,12.18
2018-01-25T17:11:38.675Z,12.17
2018-01-25T17:16:40.075Z,12.24
2018-01-25T17:21:41.452Z,12.36
2018-01-25T17:26:42.842Z,12.33
2018-01-25T17:31:44.229Z,12.22
2018-01-25T17:36:45.602Z,12.19
2018-01-25T17:41:47.651Z,12.22
2018-01-25T17:46:48.983Z,12.19
2018-01-25T17:51:51.039Z,12.20
2018-01-25T17:56:52.364Z,12.20
2018-01-25T18:01:53.678Z,12.25
2018-01-25T18:06:55.763Z,12.16
2018-01-25T18:11:57.186Z,12.19
2018-01-25T18:16:58.510Z,12.23
2018-01-25T18:21:59.831Z,12.29
2018-01-25T18:27:01.145Z,12.23
2018-01-25T18:32:03.238Z,12.22
2018-01-25T18:37:05.395Z,12.19
2018-01-25T18:42:06.717Z,12.20
2018-01-25T18:47:08.145Z,12.19
2018-01-25T18:52:10.197Z,12.16
2018-01-25T18:57:11.633Z,12.18
2018-01-25T19:02:13.827Z,12.18
2018-01-25T19:07:15.195Z,12.16
2018-01-25T19:12:16.542Z,12.17
2018-01-25T19:17:18.727Z,12.13
2018-01-25T19:22:20.110Z,12.15
2018-01-25T19:27:21.535Z,12.12
2018-01-25T19:32:22.905Z,12.14
2018-01-25T19:37:25.152Z,12.06
2018-01-25T19:42:26.486Z,12.11
2018-01-25T19:47:27.813Z,11.98
2018-01-25T19:52:29.139Z,12.01
2018-01-25T19:57:30.519Z,12.05
2018-01-25T20:02:31.862Z,12.07
2018-01-25T20:07:33.931Z,12.06
2018-01-25T20:12:35.259Z,11.99
2018-01-25T20:17:37.318Z,11.96
2018-01-25T20:22:38.686Z,11.94
2018-01-25T20:27:40.092Z,11.84
2018-01-25T20:32:41.490Z,11.84
2018-01-25T20:37:42.951Z,11.94
2018-01-25T20:42:44.322Z,11.93
2018-01-25T20:47:46.454Z,11.99
2018-01-25T20:52:48.048Z,12.05
2018-01-25T20:57:49.461Z,11.97
2018-01-25T21:02:50.936Z,11.93
2018-01-25T21:07:52.307Z,11.92
2018-01-25T21:12:54.860Z,11.88
2018-01-25T21:17:56.156Z,11.84
2018-01-25T21:22:58.889Z,11.79
2018-01-25T21:28:00.286Z,11.70
2018-01-25T21:33:01.946Z,11.77
2018-01-25T21:38:03.390Z,11.76
2018-01-25T21:43:04.697Z,11.69
2018-01-25T21:48:06.829Z,11.65
2018-01-25T21:53:08.398Z,11.60
2018-01-25T21:58:10.446Z,11.59
2018-01-25T22:03:11.867Z,11.58
2018-01-25T22:08:13.174Z,11.61
2018-01-25T22:13:14.684Z,11.62
2018-01-25T22:18:16.794Z,11.56
2018-01-25T22:23:18.858Z,11.54
2018-01-25T22:28:20.203Z,11.55
2018-01-25T22:33:21.552Z,11.57
2018-01-25T22:38:22.870Z,11.57
2018-01-25T22:43:24.946Z,11.57
2018-01-25T22:48:26.260Z,11.61
2018-01-25T22:53:28.334Z,11.59
2018-01-25T22:58:29.644Z,11.60
2018-01-25T23:03:31.081Z,11.59
2018-01-25T23:08:32.412Z,11.59
2018-01-25T23:13:33.728Z,11.53
2018-01-25T23:18:35.868Z,11.47
2018-01-25T23:23:37.206Z,11.47
2018-01-25T23:28:38.527Z,11.47
2018-01-25T23:33:40.052Z,11.39
2018-01-25T23:38:41.398Z,11.35
2018-01-25T23:43:43.459Z,11.35
2018-01-25T23:48:44.790Z,11.34
2018-01-25T23:53:46.075Z,11.41
2018-01-25T23:58:48.119Z,11.40
